AirNav   Bose ProFlight Aviation Headset
 
 394 users online  

21KY Lincoln Farm Airport
Hodgenville, Kentucky, USA

GOING TO HODGENVILLE?


FAA INFORMATION EFFECTIVE 13 SEPTEMBER 2018

Location

FAA Identifier: 21KY
Lat/Long: 37-32-15.2170N / 085-44-14.8580W
37-32.253617N / 085-44.247633W
37.5375603 / -85.7374606
(estimated)
Elevation: 780 ft. / 238 m (estimated)
Variation: 02W (1985)
From city: 2 miles S of HODGENVILLE, KY
Time zone: UTC -4 (UTC -5 during Standard Time)
Zip code: 42748

Airport Operations

Airport use: Private use. Permission required prior to landing
Activation date: 08/1988
Control tower: no
ARTCC: INDIANAPOLIS CENTER
FSS: LOUISVILLE FLIGHT SERVICE STATION
Attendance: UNATNDD
Segmented circle: no

Airport Communications

WX AWOS-3 at EKX (13 nm NW): 121.025 (270-763-6433)

Nearby radio navigation aids

VOR radial/distance  VOR name  Freq  Var
EWOr206/6.4NEW HOPE VOR/DME110.8001E
FTKr154/24.8FORT KNOX VOR/DME109.6001W
MYSr133/(32.2)MYSTIC VOR108.2001W
IIUr192/34.8LOUISVILLE VORTAC114.8001E

 
NDB name  Hdg/Dist  Freq  Var  ID
GODMAN159/27.739603WGOI --. --- ..

Airport Services

Runway Information

Runway 3/21

Dimensions: 1700 x 60 ft. / 518 x 18 m
Surface: turf
RUNWAY 3  RUNWAY 21
Traffic pattern: leftleft

Airport Ownership and Management from official FAA records

Ownership: Privately-owned
Owner: JOEL RAY SPROWLS
2579 LINCOLN FARM RD
HODGENVILLE, KY 42748
Phone 502-358-3545

Instrument Procedures

There are no published instrument procedures at 21KY.

Some nearby airports with instrument procedures:

KEKX - Addington Field Airport (13 nm NW)
KBRY - Samuels Field Airport (20 nm NE)
KAAS - Taylor County Airport (23 nm SE)
6I2 - Lebanon Springfield Airport-George Hoerter Field (24 nm E)
KFTK - Godman Army Airfield (25 nm NW)
 
Loc | Ops | Rwys | IFR | FBO | Links
Com | Nav | Svcs | Stats | Notes


 
Area around 21KY (Lincoln Farm Airport)
 
Road maps at: MapQuest Bing Google
 
Aerial photo
WARNING: Photo may not be current or correct
Aerial photo of 21KY (Lincoln Farm Airport)
Do you have a better or more recent aerial photo of Lincoln Farm Airport that you would like to share? If so, please send us your photo.

 
Sectional chart

 
Airport distance calculator
Flying to Lincoln Farm Airport? Find the distance to fly.

From to 21KY

Sunrise and sunset
Times for 24-Sep-2018
 Local
(UTC-4)
 Zulu
(UTC)
Morning civil twilight07:0711:07
Sunrise07:3311:33
Sunset19:3723:37
Evening civil twilight20:0300:03

Current date and time
Zulu (UTC)  24-Sep-2018 05:58:31
Local (UTC-4)  24-Sep-2018 01:58:31
 
METAR
KEKX 
12nm NW 
240555Z AUTO 10004KT 4SM BR OVC003 18/18 A3006 RMK AO2 P0002 60008 T01820182 10182 20180 401870156
KBRY 
20nm NE 
240555Z AUTO 00000KT 5SM OVC003 18/17 A3006 RMK AO1
KAAS 
23nm SE 
240535Z AUTO 12005KT 2 1/2SM OVC002 20/20 A3012 RMK AO1
KFTK 
23nm NW 
240442Z AUTO 07006KT 7SM OVC002 M A3009 RMK AO2 RAB02E12 SLPNO ALSTG ESTMD $
K6I2 
24nm E 
240535Z AUTO 09005KT 2 1/2SM BR OVC001 19/19 A3008 RMK AO2
TAF
KFTK 
23nm NW 
240100Z 2401/2507 06006KT 9999 OVC003 QNH3002INS BECMG 2402/2404 12009KT 8000 -RA OVC005 QNH2998INS BECMG 2412/2414 12009KT 8000 -RA SCT005 OVC010 QNH2994INS BECMG 2421/2422 16012KT 9999 NSW OVC006 QNH2995INS WND 19006KT AFT 2503 TX23/2420Z TN17/2410Z
NOTAMs
Click for the latest NOTAMs
NOTAMs are issued by the DoD/FAA and will open in a separate window not controlled by AirNav.

 

 
 

Would you like to see your business listed on this page?

 If your business provides an interesting product or service to pilots, flight crews, aircraft, or users of the Lincoln Farm Airport, you should consider listing it here.  To start the listing process, click on the button below
 
Add a business
 

Other Pages about Lincoln Farm Airport

Update a link
 
Copyright © AirNav, LLC. All rights reserved. Privacy Policy  Contact